| time (UTC) | temp F | wind direction | speed MPH | gust MPH | rain 1hr in | rain 24hr in | rain mn in | humidity % | barometer mb |
| 20260903193017 | 98 | 202 | 2.0 | 5.0 | 0.00 | 0.00 | 0.00 | 62 | 1015.4 |
| 20260903191514 | 97 | 357 | 3.0 | 8.0 | 0.00 | 0.00 | 0.00 | 63 | 1015.6 |
| 20260903190007 | 97 | 211 | 3.0 | 11.0 | 0.00 | 0.00 | 0.00 | 64 | 1015.9 |
| 20260903184600 | 96 | 205 | 2.0 | 6.0 | 0.00 | 0.00 | 0.00 | 65 | 1016.2 |
| 20260903183057 | 96 | 249 | 2.0 | 10.0 | 0.00 | 0.00 | 0.00 | 64 | 1016.3 |
| 20260903181549 | 96 | 258 | 2.0 | 9.0 | 0.00 | 0.00 | 0.00 | 65 | 1016.4 |
| 20260903180044 | 96 | 263 | 4.0 | 9.0 | 0.00 | 0.00 | 0.00 | 66 | 1016.5 |
| 20260903174536 | 95 | 350 | 2.0 | 12.0 | 0.00 | 0.00 | 0.00 | 67 | 1016.7 |
| 20260903173031 | 95 | 351 | 2.0 | 10.0 | 0.00 | 0.00 | 0.00 | 68 | 1016.8 |
| 20260903171523 | 94 | 243 | 3.0 | 10.0 | 0.00 | 0.00 | 0.00 | 70 | 1016.9 |
| 20260903170017 | 94 | 339 | 4.0 | 9.0 | 0.00 | 0.00 | 0.00 | 69 | 1017.0 |
| 20260903164511 | 93 | 240 | 0.0 | 5.0 | 0.00 | 0.00 | 0.00 | 72 | 1017.2 |
| 20260903163005 | 92 | 229 | 2.0 | 8.0 | 0.00 | 0.00 | 0.00 | 73 | 1017.3 |
| 20260903161559 | 92 | 329 | 1.0 | 7.0 | 0.00 | 0.00 | 0.00 | 74 | 1017.3 |
| 20260903160104 | 92 | 258 | 2.0 | 7.0 | 0.00 | 0.00 | 0.00 | 75 | 1017.4 |
| 20260903154604 | 91 | 282 | 1.0 | 7.0 | 0.00 | 0.00 | 0.00 | 76 | 1017.3 |
| 20260903153042 | 91 | 273 | 2.0 | 5.0 | 0.00 | 0.00 | 0.00 | 75 | 1017.4 |
| 20260903151539 | 91 | 282 | 1.0 | 6.0 | 0.00 | 0.00 | 0.00 | 76 | 1017.5 |
| 20260903150036 | 91 | 249 | 1.0 | 4.0 | 0.00 | 0.00 | 0.00 | 75 | 1017.3 |
| 20260903144531 | 89 | 311 | 1.0 | 5.0 | 0.00 | 0.00 | 0.00 | 78 | 1017.4 |
| 20260903143025 | 87 | 242 | 2.0 | 6.0 | 0.00 | 0.00 | 0.00 | 79 | 1017.4 |
| 20260903141523 | 87 | 275 | 1.0 | 6.0 | 0.00 | 0.00 | 0.00 | 80 | 1017.6 |
| 20260903140018 | 86 | 243 | 0.0 | 5.0 | 0.00 | 0.00 | 0.00 | 81 | 1017.6 |
| 20260903134516 | 85 | 241 | 1.0 | 6.0 | 0.00 | 0.00 | 0.00 | 81 | 1017.6 |
| 20260903133018 | 85 | 245 | 1.0 | 5.0 | 0.00 | 0.00 | 0.00 | 81 | 1017.6 |
| 20260903131512 | 85 | 276 | 0.0 | 2.0 | 0.00 | 0.00 | 0.00 | 81 | 1017.7 |
| 20260903130008 | 84 | 152 | 0.0 | 0.0 | 0.00 | 0.00 | 0.00 | 85 | 1017.6 |
| 20260903124515 | 81 | 152 | 0.0 | 2.0 | 0.00 | 0.00 | 0.00 | 86 | 1017.5 |
| 20260903123004 | 79 | 142 | 0.0 | 0.0 | 0.00 | 0.00 | 0.00 | 88 | 1017.4 |
| 20260903121502 | 79 | 142 | 0.0 | 0.0 | 0.00 | 0.00 | 0.00 | 87 | 1017.4 |
| 20260903120104 | 0 | 0.0 | 0.0 | 0.00 | 0.00 | 0.00 | 1017.4 | ||
| 20260903114550 | 0 | 0.0 | 0.0 | 0.00 | 0.00 | 0.00 | 1017.2 | ||
| 20260903113045 | 0 | 0.0 | 0.0 | 0.00 | 0.00 | 0.00 | 1017.3 | ||
| 20260903111543 | 0 | 0.0 | 0.0 | 0.00 | 0.00 | 0.00 | 1017.2 | ||
| 20260903110040 | 0 | 0.0 | 0.0 | 0.00 | 0.00 | 0.00 | 1017.2 | ||
| 20260903104530 | 0 | 0.0 | 0.0 | 0.00 | 0.00 | 0.00 | 1017.1 | ||
| 20260903103028 | 0 | 0.0 | 0.0 | 0.00 | 0.00 | 0.00 | 1016.8 | ||
| 20260903101534 | 0 | 145 | 1.0 | 3.0 | 0.00 | 0.00 | 0.00 | 1016.9 | |
| 20260903100016 | 80 | 156 | 0.0 | 3.0 | 0.00 | 0.00 | 0.00 | 85 | 1016.8 |
| 20260903094512 | 80 | 164 | 1.0 | 2.0 | 0.00 | 0.00 | 0.00 | 85 | 1016.8 |
| 20260903093013 | 80 | 167 | 0.0 | 2.0 | 0.00 | 0.00 | 0.00 | 85 | 1016.7 |
| 20260903091512 | 80 | 156 | 0.0 | 3.0 | 0.00 | 0.00 | 0.00 | 85 | 1016.7 |
| 20260903090006 | 80 | 161 | 0.0 | 2.0 | 0.00 | 0.00 | 0.00 | 85 | 1016.7 |
| 20260903084504 | 80 | 181 | 0.0 | 1.0 | 0.00 | 0.00 | 0.00 | 86 | 1016.8 |
| 20260903083002 | 80 | 168 | 1.0 | 3.0 | 0.00 | 0.00 | 0.00 | 85 | 1016.7 |
| 20260903081602 | 80 | 163 | 0.0 | 3.0 | 0.00 | 0.00 | 0.00 | 85 | 1016.7 |
| 20260903080056 | 81 | 163 | 1.0 | 2.0 | 0.00 | 0.00 | 0.00 | 85 | 1016.6 |
| 20260903074554 | 81 | 163 | 0.0 | 2.0 | 0.00 | 0.00 | 0.00 | 85 | 1016.5 |
| 20260903073055 | 81 | 152 | 0.0 | 5.0 | 0.00 | 0.00 | 0.00 | 85 | 1016.4 |
| 20260903071550 | 81 | 150 | 1.0 | 4.0 | 0.00 | 0.00 | 0.00 | 85 | 1016.5 |
| 20260903070046 | 81 | 152 | 2.0 | 4.0 | 0.00 | 0.00 | 0.00 | 85 | 1016.6 |
| 20260903064544 | 82 | 169 | 1.0 | 3.0 | 0.00 | 0.00 | 0.00 | 85 | 1016.7 |
| 20260903063108 | 82 | 179 | 0.0 | 2.0 | 0.00 | 0.00 | 0.00 | 85 | 1016.7 |
| 20260903061540 | 82 | 154 | 0.0 | 3.0 | 0.00 | 0.00 | 0.00 | 85 | 1016.7 |
| 20260903060035 | 82 | 159 | 1.0 | 4.0 | 0.00 | 0.00 | 0.00 | 85 | 1016.6 |
| 20260903054531 | 83 | 175 | 2.0 | 4.0 | 0.00 | 0.00 | 0.00 | 85 | 1016.5 |
| 20260903053029 | 83 | 145 | 1.0 | 3.0 | 0.00 | 0.00 | 0.00 | 85 | 1016.5 |
| 20260903051526 | 83 | 168 | 2.0 | 4.0 | 0.00 | 0.00 | 0.00 | 84 | 1016.6 |
| 20260903050023 | 84 | 145 | 1.0 | 5.0 | 0.00 | 0.00 | 0.00 | 84 | 1016.5 |
| 20260903044520 | 84 | 150 | 2.0 | 5.0 | 0.00 | 0.00 | 0.00 | 84 | 1016.3 |
| 20260903043019 | 84 | 169 | 1.0 | 4.0 | 0.00 | 0.00 | 0.00 | 83 | 1016.4 |
| 20260903041521 | 85 | 155 | 1.0 | 6.0 | 0.00 | 0.00 | 0.00 | 82 | 1016.3 |
| 20260903040014 | 85 | 156 | 2.0 | 7.0 | 0.00 | 0.00 | 0.00 | 82 | 1016.3 |
| 20260903034522 | 85 | 151 | 2.0 | 6.0 | 0.00 | 0.00 | 0.00 | 81 | 1016.3 |
| 20260903033011 | 85 | 132 | 2.0 | 6.0 | 0.00 | 0.00 | 0.00 | 81 | 1016.4 |
| 20260903031507 | 86 | 178 | 0.0 | 3.0 | 0.00 | 0.00 | 0.00 | 81 | 1016.4 |
| 20260903030009 | 86 | 168 | 0.0 | 3.0 | 0.00 | 0.00 | 0.00 | 81 | 1016.3 |
| 20260903024506 | 86 | 134 | 0.0 | 2.0 | 0.00 | 0.00 | 0.00 | 80 | 1016.4 |
| 20260903023003 | 87 | 175 | 0.0 | 5.0 | 0.00 | 0.00 | 0.00 | 80 | 1016.2 |
| 20260903021501 | 87 | 182 | 0.0 | 2.0 | 0.00 | 0.00 | 0.00 | 79 | 1016.3 |
| 20260903020059 | 87 | 154 | 1.0 | 5.0 | 0.00 | 0.00 | 0.00 | 79 | 1016.1 |
| 20260903014556 | 87 | 165 | 0.0 | 3.0 | 0.00 | 0.00 | 0.00 | 79 | 1015.9 |
| 20260903013055 | 88 | 155 | 0.0 | 2.0 | 0.00 | 0.00 | 0.00 | 78 | 1015.6 |
| 20260903011604 | 88 | 165 | 0.0 | 3.0 | 0.00 | 0.00 | 0.00 | 78 | 1015.5 |
| 20260903010051 | 89 | 217 | 0.0 | 2.0 | 0.00 | 0.00 | 0.00 | 77 | 1015.4 |
| 20260903004548 | 89 | 175 | 0.0 | 0.0 | 0.00 | 0.00 | 0.00 | 76 | 1015.4 |
| 20260903003047 | 91 | 175 | 0.0 | 1.0 | 0.00 | 0.00 | 0.00 | 73 | 1015.3 |
| 20260903001546 | 92 | 163 | 0.0 | 2.0 | 0.00 | 0.00 | 0.00 | 71 | 1015.2 |
| 20260903000043 | 94 | 171 | 1.0 | 3.0 | 0.00 | 0.00 | 0.00 | 68 | 1015.2 |
| 20260902234545 | 95 | 191 | 0.0 | 3.0 | 0.00 | 0.00 | 0.00 | 65 | 1015.2 |
| 20260902233049 | 96 | 167 | 0.0 | 5.0 | 0.00 | 0.00 | 0.00 | 63 | 1015.2 |
| 20260902231550 | 97 | 153 | 0.0 | 3.0 | 0.00 | 0.00 | 0.00 | 61 | 1015.2 |
| 20260902230035 | 97 | 249 | 1.0 | 5.0 | 0.00 | 0.00 | 0.00 | 61 | 1015.2 |
| 20260902224539 | 98 | 251 | 1.0 | 7.0 | 0.00 | 0.00 | 0.00 | 60 | 1015.2 |
| 20260902223030 | 99 | 208 | 3.0 | 7.0 | 0.00 | 0.00 | 0.00 | 58 | 1015.3 |
| 20260902221529 | 99 | 170 | 0.0 | 7.0 | 0.00 | 0.00 | 0.00 | 57 | 1015.2 |
| 20260902220028 | 99 | 194 | 3.0 | 7.0 | 0.00 | 0.00 | 0.00 | 58 | 1015.4 |
| 20260902214529 | 99 | 235 | 3.0 | 8.0 | 0.00 | 0.00 | 0.00 | 58 | 1015.2 |
| 20260902213024 | 98 | 182 | 0.0 | 8.0 | 0.00 | 0.00 | 0.00 | 61 | 1015.5 |
| 20260902211529 | 99 | 204 | 2.0 | 9.0 | 0.00 | 0.00 | 0.00 | 60 | 1015.8 |
| 20260902210020 | 99 | 26 | 0.0 | 7.0 | 0.00 | 0.00 | 0.00 | 59 | 1015.8 |
| 20260902204518 | 99 | 199 | 2.0 | 9.0 | 0.00 | 0.00 | 0.00 | 60 | 1016.0 |
| 20260902203016 | 99 | 163 | 1.0 | 7.0 | 0.00 | 0.00 | 0.00 | 58 | 1016.1 |
| 20260902201512 | 99 | 238 | 1.0 | 6.0 | 0.00 | 0.00 | 0.00 | 59 | 1016.3 |
| 20260902200008 | 99 | 327 | 2.0 | 8.0 | 0.00 | 0.00 | 0.00 | 59 | 1016.6 |
| 20260902194507 | 98 | 220 | 1.0 | 5.0 | 0.00 | 0.00 | 0.00 | 60 | 1016.7 |
| 20260902193101 | 98 | 276 | 0.0 | 7.0 | 0.00 | 0.00 | 0.00 | 62 | 1016.9 |